Wind Gültig von: 08-12-2019 10:48 bis: 09-12-2019 18:00 Warnung für: Wind Gefahrenstufe: Orange info button

Besuchen Sie unsere anderen Wetter Stationen:

Template documentation
and downloads

And another site



METAR-Meldungen aus der Umgebung

   
EHVK - Volkel Rnlafb, Netherlands
Entfernung von der Station bis: SW 18 km
Aktualisierung: 08-12-2019 12:02
Stark bewölkt  
Stark bewölkt  
   Wind: SW 40.7 km/h<br />Gust to 40.7 km/h
Wind: SW 40.7 km/h
Gust to 40.7 km/h
Temperatur: 11°C
Taupunkt: 9°C
Luftfeuchte: 88%
Luftdruck: 1000 hPa
Bewölkt: Stark bewölkt
Sichtbarkeit: More than 10 km
Bewölkung: leicht bewölkt 396.2 m,
Stark bewölkt 487.7 m,
Stark bewölkt 579.1 m
EHVK 081102Z AUTO 23022G33KT 9999 FEW013 BKN016 BKN019 11/09 Q1000 WHT
EDLV - Niederrhein, Germany
Entfernung von der Station bis: SO 25 km
Aktualisierung: 08-12-2019 11:50
Regen, Stark bewölkt  
Regen, Stark bewölkt  
   Wind: SW 27.8 km/h
Wind: SW 27.8 km/h
Temperatur: 10°C
Gefühlt: 7°C
Taupunkt: 9°C
Luftfeuchte: 94%
Luftdruck: 1000 hPa
Bewölkt: Stark bewölkt
Sichtbarkeit: 3 km
Bewölkung: Stark bewölkt 213.4 m
EDLV 081050Z 22015KT 2900 RA BKN007 10/09 Q1000
EHDL - Deelen Rnlafb, Netherlands
Entfernung von der Station bis: N 35 km
Aktualisierung: 08-12-2019 11:55
Heavy Drizzle, Stark bewölkt  
Heavy Drizzle, Stark bewölkt  
   Wind: SW 37 km/h<br />Gust to 37 km/h
Wind: SW 37 km/h
Gust to 37 km/h
Temperatur: 10°C
Gefühlt: 6°C
Taupunkt: 10°C
Luftfeuchte: 100%
Luftdruck: 998 hPa
Bewölkt: Stark bewölkt
Sichtbarkeit: 4 km
Bewölkung: Stark bewölkt 213.4 m,
Stark bewölkt 304.8 m,
Stark bewölkt 457.2 m
EHDL 081055Z AUTO 22020G32KT 140V290 3800 +DZ BKN007 BKN010 BKN015CB 10/10 Q0998 GRN
EHEH - Eindhoven Rnlafb, Netherlands
Entfernung von der Station bis: SW 48 km
Aktualisierung: 08-12-2019 12:13
Stark bewölkt  
Stark bewölkt  
   Wind: SW 35.2 km/h
Wind: SW 35.2 km/h
Temperatur: 11°C
Taupunkt: 9°C
Luftfeuchte: 88%
Luftdruck: 1001 hPa
Bewölkt: Stark bewölkt
Sichtbarkeit: More than 10 km
Bewölkung: leicht bewölkt 335.3 m,
Teilweise bewölkt 487.7 m,
Stark bewölkt 609.6 m
EHEH 081113Z AUTO 23019KT 200V270 9999 FEW011 SCT016 BKN020 11/09 Q1001 WHT 24020G30KT 9999 -RADZ SCT016 OVC020 TEMPO 2500 FEW006 SCT008 OVC012
EHGR - Gilze-Rijen Rnla, Netherlands
Entfernung von der Station bis: WSW 70 km
Aktualisierung: 08-12-2019 11:55
Stark bewölkt  
Stark bewölkt  
   Wind: SW 25.9 km/h<br />Gust to 25.9 km/h
Wind: SW 25.9 km/h
Gust to 25.9 km/h
Temperatur: 11°C
Taupunkt: 9°C
Luftfeuchte: 88%
Luftdruck: 1000 hPa
Bewölkt: Stark bewölkt
Sichtbarkeit: More than 10 km
Bewölkung: Teilweise bewölkt 457.2 m,
Stark bewölkt 548.6 m,
Stark bewölkt 640.1 m
EHGR 081055Z AUTO 23014G27KT 200V270 9999 SCT015 BKN018 BKN021 11/09 Q1000 WHT
EBBL - Kleine-Brogel(Ba, Belgium
Entfernung von der Station bis: SSW 71 km
Aktualisierung: 08-12-2019 11:55
Nieselregen, Bewölkt  
Nieselregen, Bewölkt  
   Wind: SW 33.3 km/h
Wind: SW 33.3 km/h
Temperatur: 10°C
Gefühlt: 6°C
Taupunkt: 9°C
Luftfeuchte: 94%
Luftdruck: 1002 hPa
Bewölkt: Bewölkt
Sichtbarkeit: 4 km
Bewölkung: Bewölkt 182.9 m
EBBL 081055Z AUTO 23018KT 4100 DZ OVC006/// 10/09 Q1002 YLO

Script entwickelt von  Saratoga-weather.org Angepasst für das Template von  Weerstation Leuven

Sie finden unser Wetter-Infos auch auf:

netzwerkwettercom

European Weather Network

WeatherCloud

Weather Underground

AWEKAS

Citizen Weather Observer Program (CWOP)

HAMweather, WeatherForYou, PWS Weather

Von uns verwendete Ausrüstung:

Wetterstation
Davis VP2

Davis VP2